sensor_id;sensor_type;location;lat;lon;timestamp;P1;durP1;ratioP1;P2;durP2;ratioP2
29432;SDS011;16405;53.964;13.448;2023-09-18T00:00:02;18.67;;;10.07;;
29432;SDS011;16405;53.964;13.448;2023-09-18T00:02:37;14.38;;;10.23;;
29432;SDS011;16405;53.964;13.448;2023-09-18T00:05:03;14.75;;;10.18;;
29432;SDS011;16405;53.964;13.448;2023-09-18T00:07:29;16.10;;;10.00;;
29432;SDS011;16405;53.964;13.448;2023-09-18T00:09:55;17.92;;;10.32;;
29432;SDS011;16405;53.964;13.448;2023-09-18T00:12:21;15.18;;;10.20;;
29432;SDS011;16405;53.964;13.448;2023-09-18T00:14:50;19.60;;;10.60;;
29432;SDS011;16405;53.964;13.448;2023-09-18T00:17:16;14.13;;;10.50;;
29432;SDS011;16405;53.964;13.448;2023-09-18T00:19:42;21.05;;;11.13;;
29432;SDS011;16405;53.964;13.448;2023-09-18T00:22:08;22.55;;;11.82;;
29432;SDS011;16405;53.964;13.448;2023-09-18T00:24:34;20.08;;;11.45;;
29432;SDS011;16405;53.964;13.448;2023-09-18T00:26:59;21.95;;;11.70;;
29432;SDS011;16405;53.964;13.448;2023-09-18T00:29:25;17.95;;;11.68;;
29432;SDS011;16405;53.964;13.448;2023-09-18T00:31:51;21.27;;;12.38;;
29432;SDS011;16405;53.964;13.448;2023-09-18T00:34:16;19.42;;;11.93;;
29432;SDS011;16405;53.964;13.448;2023-09-18T00:36:42;19.92;;;11.98;;
29432;SDS011;16405;53.964;13.448;2023-09-18T00:39:08;17.70;;;11.60;;
29432;SDS011;16405;53.964;13.448;2023-09-18T00:41:34;19.38;;;11.65;;
29432;SDS011;16405;53.964;13.448;2023-09-18T00:44:00;21.85;;;12.63;;
29432;SDS011;16405;53.964;13.448;2023-09-18T00:46:26;21.50;;;12.50;;
29432;SDS011;16405;53.964;13.448;2023-09-18T00:48:53;22.40;;;12.23;;
29432;SDS011;16405;53.964;13.448;2023-09-18T00:51:21;20.80;;;11.73;;
29432;SDS011;16405;53.964;13.448;2023-09-18T00:53:47;15.27;;;11.70;;
29432;SDS011;16405;53.964;13.448;2023-09-18T00:56:14;20.10;;;12.27;;
29432;SDS011;16405;53.964;13.448;2023-09-18T00:58:40;20.35;;;12.63;;
29432;SDS011;16405;53.964;13.448;2023-09-18T01:01:06;21.83;;;11.82;;
29432;SDS011;16405;53.964;13.448;2023-09-18T01:03:33;19.52;;;12.43;;
29432;SDS011;16405;53.964;13.448;2023-09-18T01:05:59;22.25;;;11.82;;
29432;SDS011;16405;53.964;13.448;2023-09-18T01:08:27;16.02;;;12.00;;
29432;SDS011;16405;53.964;13.448;2023-09-18T01:10:55;19.38;;;11.73;;
29432;SDS011;16405;53.964;13.448;2023-09-18T01:13:34;17.35;;;11.60;;
29432;SDS011;16405;53.964;13.448;2023-09-18T01:18:49;17.63;;;11.57;;
29432;SDS011;16405;53.964;13.448;2023-09-18T01:21:15;20.58;;;11.75;;
29432;SDS011;16405;53.964;13.448;2023-09-18T01:23:43;24.95;;;11.65;;
29432;SDS011;16405;53.964;13.448;2023-09-18T01:26:09;17.80;;;11.43;;
29432;SDS011;16405;53.964;13.448;2023-09-18T01:28:35;17.55;;;11.48;;
29432;SDS011;16405;53.964;13.448;2023-09-18T01:31:00;22.58;;;12.43;;
29432;SDS011;16405;53.964;13.448;2023-09-18T01:33:26;26.58;;;11.50;;
29432;SDS011;16405;53.964;13.448;2023-09-18T01:35:53;19.52;;;11.73;;
29432;SDS011;16405;53.964;13.448;2023-09-18T01:38:21;24.60;;;11.98;;
29432;SDS011;16405;53.964;13.448;2023-09-18T01:40:49;19.60;;;11.57;;
29432;SDS011;16405;53.964;13.448;2023-09-18T01:43:18;14.25;;;10.65;;
29432;SDS011;16405;53.964;13.448;2023-09-18T01:45:46;18.27;;;10.90;;
29432;SDS011;16405;53.964;13.448;2023-09-18T01:48:12;21.55;;;11.23;;
29432;SDS011;16405;53.964;13.448;2023-09-18T01:50:38;18.75;;;10.88;;
29432;SDS011;16405;53.964;13.448;2023-09-18T01:53:07;19.27;;;11.35;;
29432;SDS011;16405;53.964;13.448;2023-09-18T01:55:32;17.88;;;11.07;;
29432;SDS011;16405;53.964;13.448;2023-09-18T01:58:03;24.35;;;11.55;;
29432;SDS011;16405;53.964;13.448;2023-09-18T02:00:29;18.08;;;11.10;;
29432;SDS011;16405;53.964;13.448;2023-09-18T02:02:55;21.13;;;11.82;;
29432;SDS011;16405;53.964;13.448;2023-09-18T02:05:21;18.05;;;11.65;;
29432;SDS011;16405;53.964;13.448;2023-09-18T02:07:47;15.00;;;11.40;;
29432;SDS011;16405;53.964;13.448;2023-09-18T02:10:12;16.08;;;10.95;;
29432;SDS011;16405;53.964;13.448;2023-09-18T02:12:38;16.33;;;11.23;;
29432;SDS011;16405;53.964;13.448;2023-09-18T02:15:05;21.30;;;11.32;;
29432;SDS011;16405;53.964;13.448;2023-09-18T02:17:32;18.58;;;11.27;;
29432;SDS011;16405;53.964;13.448;2023-09-18T02:19:57;18.67;;;11.90;;
29432;SDS011;16405;53.964;13.448;2023-09-18T02:22:25;22.52;;;11.27;;
29432;SDS011;16405;53.964;13.448;2023-09-18T02:24:51;24.73;;;11.27;;
29432;SDS011;16405;53.964;13.448;2023-09-18T02:27:17;14.70;;;11.05;;
29432;SDS011;16405;53.964;13.448;2023-09-18T02:29:47;21.48;;;11.82;;
29432;SDS011;16405;53.964;13.448;2023-09-18T02:32:15;20.05;;;11.70;;
29432;SDS011;16405;53.964;13.448;2023-09-18T02:34:40;21.95;;;12.38;;
29432;SDS011;16405;53.964;13.448;2023-09-18T02:37:06;21.17;;;12.30;;
29432;SDS011;16405;53.964;13.448;2023-09-18T02:39:31;19.50;;;11.60;;
29432;SDS011;16405;53.964;13.448;2023-09-18T02:42:00;19.48;;;12.07;;
29432;SDS011;16405;53.964;13.448;2023-09-18T02:44:29;16.70;;;11.43;;
29432;SDS011;16405;53.964;13.448;2023-09-18T02:46:54;18.98;;;12.00;;
29432;SDS011;16405;53.964;13.448;2023-09-18T02:49:20;23.55;;;11.90;;
29432;SDS011;16405;53.964;13.448;2023-09-18T02:51:46;19.35;;;11.93;;
29432;SDS011;16405;53.964;13.448;2023-09-18T02:54:11;19.45;;;11.77;;
29432;SDS011;16405;53.964;13.448;2023-09-18T02:56:37;16.15;;;11.57;;
29432;SDS011;16405;53.964;13.448;2023-09-18T02:59:03;24.38;;;11.63;;
29432;SDS011;16405;53.964;13.448;2023-09-18T03:01:29;18.63;;;11.98;;
29432;SDS011;16405;53.964;13.448;2023-09-18T03:03:55;19.70;;;12.27;;
29432;SDS011;16405;53.964;13.448;2023-09-18T03:06:21;18.95;;;12.43;;
29432;SDS011;16405;53.964;13.448;2023-09-18T03:08:46;18.48;;;11.48;;
29432;SDS011;16405;53.964;13.448;2023-09-18T03:11:12;20.13;;;12.40;;
29432;SDS011;16405;53.964;13.448;2023-09-18T03:13:45;23.92;;;12.68;;
29432;SDS011;16405;53.964;13.448;2023-09-18T03:16:11;20.23;;;12.45;;
29432;SDS011;16405;53.964;13.448;2023-09-18T03:18:38;19.40;;;12.00;;
29432;SDS011;16405;53.964;13.448;2023-09-18T03:21:03;17.20;;;11.65;;
29432;SDS011;16405;53.964;13.448;2023-09-18T03:23:29;19.95;;;12.10;;
29432;SDS011;16405;53.964;13.448;2023-09-18T03:25:55;25.23;;;12.98;;
29432;SDS011;16405;53.964;13.448;2023-09-18T03:28:21;18.02;;;12.70;;
29432;SDS011;16405;53.964;13.448;2023-09-18T03:30:49;18.90;;;12.88;;
29432;SDS011;16405;53.964;13.448;2023-09-18T03:33:15;20.10;;;12.25;;
29432;SDS011;16405;53.964;13.448;2023-09-18T03:35:47;22.05;;;13.43;;
29432;SDS011;16405;53.964;13.448;2023-09-18T03:38:15;20.95;;;13.02;;
29432;SDS011;16405;53.964;13.448;2023-09-18T03:40:43;22.30;;;12.07;;
29432;SDS011;16405;53.964;13.448;2023-09-18T03:43:09;20.70;;;12.02;;
29432;SDS011;16405;53.964;13.448;2023-09-18T03:45:36;18.02;;;12.93;;
29432;SDS011;16405;53.964;13.448;2023-09-18T03:48:04;22.55;;;13.10;;
29432;SDS011;16405;53.964;13.448;2023-09-18T03:50:29;20.95;;;12.75;;
29432;SDS011;16405;53.964;13.448;2023-09-18T03:52:55;18.13;;;12.15;;
29432;SDS011;16405;53.964;13.448;2023-09-18T03:55:21;17.02;;;12.32;;
29432;SDS011;16405;53.964;13.448;2023-09-18T03:57:46;18.88;;;11.85;;
29432;SDS011;16405;53.964;13.448;2023-09-18T04:00:13;21.25;;;12.20;;
29432;SDS011;16405;53.964;13.448;2023-09-18T04:02:39;17.15;;;11.75;;
29432;SDS011;16405;53.964;13.448;2023-09-18T04:05:05;17.63;;;11.48;;
29432;SDS011;16405;53.964;13.448;2023-09-18T04:07:34;16.70;;;11.05;;
29432;SDS011;16405;53.964;13.448;2023-09-18T04:10:00;21.02;;;11.15;;
29432;SDS011;16405;53.964;13.448;2023-09-18T04:12:27;17.80;;;11.23;;
29432;SDS011;16405;53.964;13.448;2023-09-18T04:14:53;18.92;;;11.75;;
29432;SDS011;16405;53.964;13.448;2023-09-18T04:17:18;16.42;;;10.27;;
29432;SDS011;16405;53.964;13.448;2023-09-18T04:19:46;16.98;;;11.52;;
29432;SDS011;16405;53.964;13.448;2023-09-18T04:22:12;16.27;;;11.00;;
29432;SDS011;16405;53.964;13.448;2023-09-18T04:24:37;15.77;;;11.23;;
29432;SDS011;16405;53.964;13.448;2023-09-18T04:27:03;15.25;;;10.75;;
29432;SDS011;16405;53.964;13.448;2023-09-18T04:29:32;14.38;;;10.05;;
29432;SDS011;16405;53.964;13.448;2023-09-18T04:31:57;18.80;;;10.30;;
29432;SDS011;16405;53.964;13.448;2023-09-18T04:34:23;19.92;;;10.68;;
29432;SDS011;16405;53.964;13.448;2023-09-18T04:36:49;15.90;;;9.80;;
29432;SDS011;16405;53.964;13.448;2023-09-18T04:39:15;18.80;;;10.23;;
29432;SDS011;16405;53.964;13.448;2023-09-18T04:41:41;15.10;;;9.35;;
29432;SDS011;16405;53.964;13.448;2023-09-18T04:44:06;18.25;;;10.23;;
29432;SDS011;16405;53.964;13.448;2023-09-18T04:46:34;14.50;;;9.15;;
29432;SDS011;16405;53.964;13.448;2023-09-18T04:49:01;14.30;;;9.20;;
29432;SDS011;16405;53.964;13.448;2023-09-18T04:51:28;14.80;;;9.57;;
29432;SDS011;16405;53.964;13.448;2023-09-18T04:53:57;18.95;;;10.10;;
29432;SDS011;16405;53.964;13.448;2023-09-18T04:56:23;12.98;;;9.70;;
29432;SDS011;16405;53.964;13.448;2023-09-18T04:58:52;13.65;;;9.35;;
29432;SDS011;16405;53.964;13.448;2023-09-18T05:01:18;13.15;;;9.30;;
29432;SDS011;16405;53.964;13.448;2023-09-18T05:06:12;15.13;;;9.82;;
29432;SDS011;16405;53.964;13.448;2023-09-18T05:08:37;15.48;;;9.30;;
29432;SDS011;16405;53.964;13.448;2023-09-18T05:11:04;14.93;;;9.18;;
29432;SDS011;16405;53.964;13.448;2023-09-18T05:13:30;12.02;;;9.40;;
29432;SDS011;16405;53.964;13.448;2023-09-18T05:15:55;15.98;;;9.48;;
29432;SDS011;16405;53.964;13.448;2023-09-18T05:18:23;15.02;;;8.82;;
29432;SDS011;16405;53.964;13.448;2023-09-18T05:20:48;13.18;;;9.00;;
29432;SDS011;16405;53.964;13.448;2023-09-18T05:23:14;15.50;;;8.90;;
29432;SDS011;16405;53.964;13.448;2023-09-18T05:25:41;10.55;;;8.80;;
29432;SDS011;16405;53.964;13.448;2023-09-18T05:28:09;14.10;;;9.00;;
29432;SDS011;16405;53.964;13.448;2023-09-18T05:30:35;12.52;;;8.80;;
29432;SDS011;16405;53.964;13.448;2023-09-18T05:33:03;11.68;;;7.95;;
29432;SDS011;16405;53.964;13.448;2023-09-18T05:35:34;13.02;;;8.82;;
29432;SDS011;16405;53.964;13.448;2023-09-18T05:38:10;11.23;;;8.98;;
29432;SDS011;16405;53.964;13.448;2023-09-18T05:40:38;15.60;;;8.60;;
29432;SDS011;16405;53.964;13.448;2023-09-18T05:43:05;19.80;;;8.10;;
29432;SDS011;16405;53.964;13.448;2023-09-18T05:45:31;11.85;;;7.80;;
29432;SDS011;16405;53.964;13.448;2023-09-18T05:47:58;12.88;;;8.27;;
29432;SDS011;16405;53.964;13.448;2023-09-18T05:50:33;11.15;;;7.18;;
29432;SDS011;16405;53.964;13.448;2023-09-18T05:53:01;12.95;;;8.02;;
29432;SDS011;16405;53.964;13.448;2023-09-18T05:55:32;15.18;;;8.40;;
29432;SDS011;16405;53.964;13.448;2023-09-18T05:57:59;11.98;;;8.13;;
29432;SDS011;16405;53.964;13.448;2023-09-18T06:00:26;16.33;;;8.15;;
29432;SDS011;16405;53.964;13.448;2023-09-18T06:02:52;12.60;;;7.55;;
29432;SDS011;16405;53.964;13.448;2023-09-18T06:05:18;12.00;;;7.45;;
29432;SDS011;16405;53.964;13.448;2023-09-18T06:07:47;8.50;;;5.97;;
29432;SDS011;16405;53.964;13.448;2023-09-18T06:10:16;10.85;;;6.43;;
29432;SDS011;16405;53.964;13.448;2023-09-18T06:12:44;11.55;;;7.72;;
29432;SDS011;16405;53.964;13.448;2023-09-18T06:15:10;9.60;;;7.47;;
29432;SDS011;16405;53.964;13.448;2023-09-18T06:17:37;11.55;;;7.25;;
29432;SDS011;16405;53.964;13.448;2023-09-18T06:20:05;10.55;;;7.13;;
29432;SDS011;16405;53.964;13.448;2023-09-18T06:22:38;10.27;;;7.00;;
29432;SDS011;16405;53.964;13.448;2023-09-18T06:25:06;9.57;;;7.68;;
29432;SDS011;16405;53.964;13.448;2023-09-18T06:27:34;12.02;;;7.65;;
29432;SDS011;16405;53.964;13.448;2023-09-18T06:30:00;9.73;;;6.57;;
29432;SDS011;16405;53.964;13.448;2023-09-18T06:32:26;8.27;;;6.47;;
29432;SDS011;16405;53.964;13.448;2023-09-18T06:34:51;9.73;;;6.97;;
29432;SDS011;16405;53.964;13.448;2023-09-18T06:37:17;9.70;;;7.22;;
29432;SDS011;16405;53.964;13.448;2023-09-18T06:39:44;9.57;;;6.40;;
29432;SDS011;16405;53.964;13.448;2023-09-18T06:42:09;7.85;;;6.00;;
29432;SDS011;16405;53.964;13.448;2023-09-18T06:44:35;8.75;;;6.38;;
29432;SDS011;16405;53.964;13.448;2023-09-18T06:47:01;9.65;;;5.68;;
29432;SDS011;16405;53.964;13.448;2023-09-18T06:49:26;13.07;;;5.72;;
29432;SDS011;16405;53.964;13.448;2023-09-18T06:51:55;9.40;;;6.45;;
29432;SDS011;16405;53.964;13.448;2023-09-18T06:54:21;17.42;;;6.05;;
29432;SDS011;16405;53.964;13.448;2023-09-18T06:56:47;9.02;;;6.32;;
29432;SDS011;16405;53.964;13.448;2023-09-18T06:59:13;13.43;;;6.05;;
29432;SDS011;16405;53.964;13.448;2023-09-18T07:01:39;8.75;;;6.13;;
29432;SDS011;16405;53.964;13.448;2023-09-18T07:04:06;11.70;;;6.40;;
29432;SDS011;16405;53.964;13.448;2023-09-18T07:06:32;9.63;;;5.90;;
29432;SDS011;16405;53.964;13.448;2023-09-18T07:08:58;9.35;;;5.90;;
29432;SDS011;16405;53.964;13.448;2023-09-18T07:11:24;9.07;;;6.05;;
29432;SDS011;16405;53.964;13.448;2023-09-18T07:13:50;9.73;;;5.90;;
29432;SDS011;16405;53.964;13.448;2023-09-18T07:16:16;7.65;;;6.05;;
29432;SDS011;16405;53.964;13.448;2023-09-18T07:18:41;8.45;;;5.40;;
29432;SDS011;16405;53.964;13.448;2023-09-18T07:21:10;8.38;;;5.70;;
29432;SDS011;16405;53.964;13.448;2023-09-18T07:23:36;9.98;;;5.85;;
29432;SDS011;16405;53.964;13.448;2023-09-18T07:26:04;6.90;;;5.25;;
29432;SDS011;16405;53.964;13.448;2023-09-18T07:28:31;7.53;;;5.70;;
29432;SDS011;16405;53.964;13.448;2023-09-18T07:30:57;10.15;;;5.60;;
29432;SDS011;16405;53.964;13.448;2023-09-18T07:33:31;8.63;;;5.13;;
29432;SDS011;16405;53.964;13.448;2023-09-18T07:35:57;6.15;;;5.30;;
29432;SDS011;16405;53.964;13.448;2023-09-18T07:38:23;9.20;;;4.70;;
29432;SDS011;16405;53.964;13.448;2023-09-18T07:40:50;6.85;;;5.10;;
29432;SDS011;16405;53.964;13.448;2023-09-18T07:43:15;9.77;;;5.05;;
29432;SDS011;16405;53.964;13.448;2023-09-18T07:45:41;7.22;;;5.07;;
29432;SDS011;16405;53.964;13.448;2023-09-18T07:48:07;6.13;;;4.90;;
29432;SDS011;16405;53.964;13.448;2023-09-18T07:50:34;9.88;;;5.10;;
29432;SDS011;16405;53.964;13.448;2023-09-18T07:53:00;8.95;;;4.45;;
29432;SDS011;16405;53.964;13.448;2023-09-18T07:55:27;9.18;;;4.47;;
29432;SDS011;16405;53.964;13.448;2023-09-18T07:57:54;6.47;;;4.57;;
29432;SDS011;16405;53.964;13.448;2023-09-18T08:00:20;4.90;;;4.40;;
29432;SDS011;16405;53.964;13.448;2023-09-18T08:02:50;8.48;;;4.43;;
29432;SDS011;16405;53.964;13.448;2023-09-18T08:05:19;10.63;;;4.30;;
29432;SDS011;16405;53.964;13.448;2023-09-18T08:07:45;8.20;;;4.10;;
29432;SDS011;16405;53.964;13.448;2023-09-18T08:10:12;6.45;;;4.28;;
29432;SDS011;16405;53.964;13.448;2023-09-18T08:12:38;6.10;;;3.97;;
29432;SDS011;16405;53.964;13.448;2023-09-18T08:15:04;6.55;;;3.88;;
29432;SDS011;16405;53.964;13.448;2023-09-18T08:17:31;6.25;;;3.70;;
29432;SDS011;16405;53.964;13.448;2023-09-18T08:19:57;7.80;;;4.22;;
29432;SDS011;16405;53.964;13.448;2023-09-18T08:22:23;5.25;;;3.80;;
29432;SDS011;16405;53.964;13.448;2023-09-18T08:24:49;9.93;;;3.97;;
29432;SDS011;16405;53.964;13.448;2023-09-18T08:27:17;5.13;;;3.58;;
29432;SDS011;16405;53.964;13.448;2023-09-18T08:29:44;6.80;;;3.67;;
29432;SDS011;16405;53.964;13.448;2023-09-18T08:32:11;6.78;;;3.25;;
29432;SDS011;16405;53.964;13.448;2023-09-18T08:34:37;4.82;;;3.70;;
29432;SDS011;16405;53.964;13.448;2023-09-18T08:37:03;4.55;;;3.20;;
29432;SDS011;16405;53.964;13.448;2023-09-18T08:39:29;6.57;;;3.88;;
29432;SDS011;16405;53.964;13.448;2023-09-18T08:41:59;8.32;;;3.83;;
29432;SDS011;16405;53.964;13.448;2023-09-18T08:44:29;4.50;;;3.70;;
29432;SDS011;16405;53.964;13.448;2023-09-18T08:46:56;4.25;;;3.60;;
29432;SDS011;16405;53.964;13.448;2023-09-18T08:49:22;6.82;;;3.97;;
29432;SDS011;16405;53.964;13.448;2023-09-18T08:51:50;7.78;;;3.75;;
29432;SDS011;16405;53.964;13.448;2023-09-18T08:54:18;6.05;;;3.15;;
29432;SDS011;16405;53.964;13.448;2023-09-18T08:56:44;9.82;;;3.65;;
29432;SDS011;16405;53.964;13.448;2023-09-18T08:59:10;3.65;;;3.17;;
29432;SDS011;16405;53.964;13.448;2023-09-18T09:01:38;4.90;;;3.50;;
29432;SDS011;16405;53.964;13.448;2023-09-18T09:04:04;6.22;;;3.55;;
29432;SDS011;16405;53.964;13.448;2023-09-18T09:06:38;4.57;;;3.50;;
29432;SDS011;16405;53.964;13.448;2023-09-18T09:09:04;9.45;;;3.42;;
29432;SDS011;16405;53.964;13.448;2023-09-18T09:11:30;3.67;;;3.17;;
29432;SDS011;16405;53.964;13.448;2023-09-18T09:14:12;8.90;;;3.97;;
29432;SDS011;16405;53.964;13.448;2023-09-18T09:16:52;6.03;;;3.50;;
29432;SDS011;16405;53.964;13.448;2023-09-18T09:19:29;7.70;;;3.72;;
29432;SDS011;16405;53.964;13.448;2023-09-18T09:22:06;5.40;;;3.45;;
29432;SDS011;16405;53.964;13.448;2023-09-18T09:24:43;8.20;;;3.55;;
29432;SDS011;16405;53.964;13.448;2023-09-18T09:27:10;8.30;;;3.42;;
29432;SDS011;16405;53.964;13.448;2023-09-18T09:29:42;9.13;;;3.72;;
29432;SDS011;16405;53.964;13.448;2023-09-18T09:32:23;10.57;;;3.45;;
29432;SDS011;16405;53.964;13.448;2023-09-18T09:34:49;5.45;;;3.67;;
29432;SDS011;16405;53.964;13.448;2023-09-18T09:37:24;7.78;;;3.50;;
29432;SDS011;16405;53.964;13.448;2023-09-18T09:39:56;7.40;;;3.45;;
29432;SDS011;16405;53.964;13.448;2023-09-18T09:42:24;5.20;;;3.30;;
29432;SDS011;16405;53.964;13.448;2023-09-18T09:45:03;6.93;;;3.25;;
29432;SDS011;16405;53.964;13.448;2023-09-18T09:52:48;9.50;;;3.50;;
29432;SDS011;16405;53.964;13.448;2023-09-18T09:55:23;5.05;;;3.22;;
29432;SDS011;16405;53.964;13.448;2023-09-18T09:58:05;6.55;;;3.58;;
29432;SDS011;16405;53.964;13.448;2023-09-18T10:00:33;10.57;;;3.35;;
29432;SDS011;16405;53.964;13.448;2023-09-18T10:03:18;9.65;;;3.60;;
29432;SDS011;16405;53.964;13.448;2023-09-18T10:05:52;8.50;;;4.28;;
29432;SDS011;16405;53.964;13.448;2023-09-18T10:08:23;8.48;;;3.05;;
29432;SDS011;16405;53.964;13.448;2023-09-18T10:10:53;10.50;;;3.70;;
29432;SDS011;16405;53.964;13.448;2023-09-18T10:13:23;7.13;;;3.28;;
29432;SDS011;16405;53.964;13.448;2023-09-18T10:16:11;8.07;;;3.05;;
29432;SDS011;16405;53.964;13.448;2023-09-18T10:22:13;5.07;;;3.20;;
29432;SDS011;16405;53.964;13.448;2023-09-18T10:25:23;10.55;;;3.13;;
29432;SDS011;16405;53.964;13.448;2023-09-18T10:27:57;5.65;;;3.22;;
29432;SDS011;16405;53.964;13.448;2023-09-18T10:30:29;9.85;;;3.40;;
29432;SDS011;16405;53.964;13.448;2023-09-18T10:32:57;9.35;;;3.20;;
29432;SDS011;16405;53.964;13.448;2023-09-18T10:35:29;5.90;;;3.10;;
29432;SDS011;16405;53.964;13.448;2023-09-18T10:38:03;5.68;;;3.13;;
29432;SDS011;16405;53.964;13.448;2023-09-18T10:43:09;8.07;;;3.30;;
29432;SDS011;16405;53.964;13.448;2023-09-18T10:45:46;9.52;;;3.30;;
29432;SDS011;16405;53.964;13.448;2023-09-18T10:48:14;6.60;;;3.38;;
29432;SDS011;16405;53.964;13.448;2023-09-18T10:50:44;9.27;;;3.45;;
29432;SDS011;16405;53.964;13.448;2023-09-18T10:53:19;6.18;;;3.20;;
29432;SDS011;16405;53.964;13.448;2023-09-18T10:55:46;5.72;;;3.38;;
29432;SDS011;16405;53.964;13.448;2023-09-18T10:58:22;12.73;;;3.80;;
29432;SDS011;16405;53.964;13.448;2023-09-18T11:00:50;7.60;;;3.35;;
29432;SDS011;16405;53.964;13.448;2023-09-18T11:03:17;7.18;;;3.20;;
29432;SDS011;16405;53.964;13.448;2023-09-18T11:05:46;5.45;;;3.17;;
29432;SDS011;16405;53.964;13.448;2023-09-18T11:08:32;5.22;;;3.03;;
29432;SDS011;16405;53.964;13.448;2023-09-18T11:11:11;6.07;;;3.15;;
29432;SDS011;16405;53.964;13.448;2023-09-18T11:18:53;4.53;;;3.38;;
29432;SDS011;16405;53.964;13.448;2023-09-18T11:21:34;3.85;;;3.40;;
29432;SDS011;16405;53.964;13.448;2023-09-18T11:24:07;7.28;;;3.80;;
29432;SDS011;16405;53.964;13.448;2023-09-18T11:26:47;9.20;;;3.17;;
29432;SDS011;16405;53.964;13.448;2023-09-18T11:29:18;9.35;;;5.38;;
29432;SDS011;16405;53.964;13.448;2023-09-18T11:37:22;5.97;;;3.25;;
29432;SDS011;16405;53.964;13.448;2023-09-18T11:39:56;10.48;;;3.67;;
29432;SDS011;16405;53.964;13.448;2023-09-18T11:42:25;12.65;;;5.22;;
29432;SDS011;16405;53.964;13.448;2023-09-18T11:44:51;6.30;;;4.35;;
29432;SDS011;16405;53.964;13.448;2023-09-18T11:47:26;4.57;;;3.58;;
29432;SDS011;16405;53.964;13.448;2023-09-18T11:49:59;7.63;;;3.35;;
29432;SDS011;16405;53.964;13.448;2023-09-18T11:52:39;13.80;;;3.63;;
29432;SDS011;16405;53.964;13.448;2023-09-18T11:55:07;6.35;;;3.17;;
29432;SDS011;16405;53.964;13.448;2023-09-18T11:57:37;5.18;;;3.13;;
29432;SDS011;16405;53.964;13.448;2023-09-18T12:00:17;4.00;;;2.88;;
29432;SDS011;16405;53.964;13.448;2023-09-18T12:02:47;5.82;;;3.15;;
29432;SDS011;16405;53.964;13.448;2023-09-18T12:05:15;7.30;;;3.30;;
29432;SDS011;16405;53.964;13.448;2023-09-18T12:07:43;5.72;;;3.20;;
29432;SDS011;16405;53.964;13.448;2023-09-18T12:10:11;7.30;;;2.90;;
29432;SDS011;16405;53.964;13.448;2023-09-18T12:12:42;11.05;;;2.95;;
29432;SDS011;16405;53.964;13.448;2023-09-18T12:15:12;8.63;;;3.00;;
29432;SDS011;16405;53.964;13.448;2023-09-18T12:17:40;7.05;;;2.78;;
29432;SDS011;16405;53.964;13.448;2023-09-18T12:20:09;5.38;;;3.10;;
29432;SDS011;16405;53.964;13.448;2023-09-18T12:22:46;9.88;;;3.25;;
29432;SDS011;16405;53.964;13.448;2023-09-18T12:25:16;4.55;;;3.08;;
29432;SDS011;16405;53.964;13.448;2023-09-18T12:27:43;8.88;;;2.95;;
29432;SDS011;16405;53.964;13.448;2023-09-18T12:30:09;13.25;;;3.33;;
29432;SDS011;16405;53.964;13.448;2023-09-18T12:32:45;12.55;;;3.30;;
29432;SDS011;16405;53.964;13.448;2023-09-18T12:35:13;4.25;;;3.17;;
29432;SDS011;16405;53.964;13.448;2023-09-18T12:37:39;8.23;;;3.45;;
29432;SDS011;16405;53.964;13.448;2023-09-18T12:40:10;5.18;;;2.92;;
29432;SDS011;16405;53.964;13.448;2023-09-18T12:42:56;9.02;;;3.10;;
29432;SDS011;16405;53.964;13.448;2023-09-18T12:45:26;5.80;;;3.25;;
29432;SDS011;16405;53.964;13.448;2023-09-18T12:47:55;5.32;;;2.97;;
29432;SDS011;16405;53.964;13.448;2023-09-18T12:50:22;5.88;;;3.30;;
29432;SDS011;16405;53.964;13.448;2023-09-18T12:52:48;12.40;;;3.00;;
29432;SDS011;16405;53.964;13.448;2023-09-18T12:55:24;5.40;;;2.80;;
29432;SDS011;16405;53.964;13.448;2023-09-18T12:57:52;10.35;;;3.10;;
29432;SDS011;16405;53.964;13.448;2023-09-18T13:00:19;7.60;;;2.85;;
29432;SDS011;16405;53.964;13.448;2023-09-18T13:02:47;6.30;;;2.97;;
29432;SDS011;16405;53.964;13.448;2023-09-18T13:05:19;10.98;;;2.70;;
29432;SDS011;16405;53.964;13.448;2023-09-18T13:07:51;4.50;;;2.30;;
29432;SDS011;16405;53.964;13.448;2023-09-18T13:10:21;5.95;;;2.60;;
29432;SDS011;16405;53.964;13.448;2023-09-18T13:15:29;8.02;;;2.40;;
29432;SDS011;16405;53.964;13.448;2023-09-18T13:18:08;4.30;;;2.25;;
29432;SDS011;16405;53.964;13.448;2023-09-18T13:20:35;3.58;;;2.72;;
29432;SDS011;16405;53.964;13.448;2023-09-18T13:23:01;9.75;;;2.08;;
29432;SDS011;16405;53.964;13.448;2023-09-18T13:25:36;7.13;;;2.70;;
29432;SDS011;16405;53.964;13.448;2023-09-18T13:28:08;5.15;;;2.45;;
29432;SDS011;16405;53.964;13.448;2023-09-18T13:30:41;5.90;;;2.30;;
29432;SDS011;16405;53.964;13.448;2023-09-18T13:33:11;4.05;;;2.30;;
29432;SDS011;16405;53.964;13.448;2023-09-18T13:35:41;4.45;;;2.28;;
29432;SDS011;16405;53.964;13.448;2023-09-18T13:38:09;3.28;;;2.47;;
29432;SDS011;16405;53.964;13.448;2023-09-18T13:40:36;3.80;;;2.35;;
29432;SDS011;16405;53.964;13.448;2023-09-18T13:43:08;6.72;;;2.60;;
29432;SDS011;16405;53.964;13.448;2023-09-18T13:45:35;5.70;;;2.80;;
29432;SDS011;16405;53.964;13.448;2023-09-18T13:48:01;5.22;;;2.45;;
29432;SDS011;16405;53.964;13.448;2023-09-18T13:50:31;7.30;;;2.60;;
29432;SDS011;16405;53.964;13.448;2023-09-18T13:52:58;5.60;;;2.97;;
29432;SDS011;16405;53.964;13.448;2023-09-18T13:58:43;9.15;;;2.50;;
29432;SDS011;16405;53.964;13.448;2023-09-18T14:01:50;5.00;;;2.60;;
29432;SDS011;16405;53.964;13.448;2023-09-18T14:16:20;8.40;;;2.80;;
29432;SDS011;16405;53.964;13.448;2023-09-18T14:18:51;9.13;;;3.00;;
29432;SDS011;16405;53.964;13.448;2023-09-18T14:21:19;9.73;;;2.55;;
29432;SDS011;16405;53.964;13.448;2023-09-18T14:23:45;6.22;;;2.75;;
29432;SDS011;16405;53.964;13.448;2023-09-18T14:26:12;5.65;;;2.97;;
29432;SDS011;16405;53.964;13.448;2023-09-18T14:28:37;9.43;;;2.70;;
29432;SDS011;16405;53.964;13.448;2023-09-18T14:31:07;6.35;;;2.72;;
29432;SDS011;16405;53.964;13.448;2023-09-18T14:33:33;10.43;;;2.85;;
29432;SDS011;16405;53.964;13.448;2023-09-18T14:36:01;4.20;;;2.50;;
29432;SDS011;16405;53.964;13.448;2023-09-18T14:38:28;12.80;;;3.13;;
29432;SDS011;16405;53.964;13.448;2023-09-18T14:40:56;7.65;;;2.78;;
29432;SDS011;16405;53.964;13.448;2023-09-18T14:43:27;7.63;;;3.00;;
29432;SDS011;16405;53.964;13.448;2023-09-18T14:45:53;4.25;;;2.65;;
29432;SDS011;16405;53.964;13.448;2023-09-18T14:48:23;5.30;;;3.33;;
29432;SDS011;16405;53.964;13.448;2023-09-18T14:50:54;8.95;;;2.70;;
29432;SDS011;16405;53.964;13.448;2023-09-18T14:53:23;3.90;;;3.00;;
29432;SDS011;16405;53.964;13.448;2023-09-18T14:56:01;4.55;;;3.10;;
29432;SDS011;16405;53.964;13.448;2023-09-18T14:58:41;4.80;;;2.80;;
29432;SDS011;16405;53.964;13.448;2023-09-18T15:01:17;9.75;;;3.13;;
29432;SDS011;16405;53.964;13.448;2023-09-18T15:06:41;7.03;;;3.00;;
29432;SDS011;16405;53.964;13.448;2023-09-18T15:09:22;9.48;;;3.10;;
29432;SDS011;16405;53.964;13.448;2023-09-18T15:12:00;7.50;;;3.30;;
29432;SDS011;16405;53.964;13.448;2023-09-18T15:14:45;7.47;;;3.38;;
29432;SDS011;16405;53.964;13.448;2023-09-18T15:17:23;5.30;;;3.13;;
29432;SDS011;16405;53.964;13.448;2023-09-18T15:19:50;9.68;;;3.50;;